Terminal Aerodrome Forecast
Issued by NWS

Home | Current Version | Previous Version | Text Only | Print | Product List | Glossary On
Versions: 1 2 3 4 5 6 7 8 9 10 11 12 13 14 15 16 17 18 19 20 21 22 23 24 25 26 27 28 29 30 31 32 33 34 35 36 37
000
FTUS43 KIND 191126
TAFHUF
TAF
KHUF 191126Z 1912/2012 00000KT P6SM BKN120
     FM191800 00000KT P6SM VCSH BKN050
     FM200500 00000KT 6SM SHRA BR VCTS OVC025CB
     FM200600 00000KT 6SM -SHRA BR BKN015
     FM201000 VRB03KT P6SM OVC005=

USA.gov is the U.S. government's official web portal to all federal, state and local government web resources and services.